sensor_id;sensor_type;location;lat;lon;timestamp;P1;durP1;ratioP1;P2;durP2;ratioP2
66669;SDS011;53568;52.164;4.472;2023-03-14T00:00:33;7.94;;;4.97;;
66669;SDS011;53568;52.164;4.472;2023-03-14T00:02:58;7.54;;;4.76;;
66669;SDS011;53568;52.164;4.472;2023-03-14T00:05:24;7.87;;;4.99;;
66669;SDS011;53568;52.164;4.472;2023-03-14T00:07:50;8.01;;;5.01;;
66669;SDS011;53568;52.164;4.472;2023-03-14T00:10:15;7.14;;;4.45;;
66669;SDS011;53568;52.164;4.472;2023-03-14T00:12:41;7.12;;;4.50;;
66669;SDS011;53568;52.164;4.472;2023-03-14T00:15:07;7.81;;;4.92;;
66669;SDS011;53568;52.164;4.472;2023-03-14T00:17:34;7.46;;;4.70;;
66669;SDS011;53568;52.164;4.472;2023-03-14T00:20:01;7.18;;;4.54;;
66669;SDS011;53568;52.164;4.472;2023-03-14T00:22:36;7.77;;;4.96;;
66669;SDS011;53568;52.164;4.472;2023-03-14T00:25:03;8.11;;;5.15;;
66669;SDS011;53568;52.164;4.472;2023-03-14T00:27:31;7.86;;;5.02;;
66669;SDS011;53568;52.164;4.472;2023-03-14T00:29:57;9.50;;;5.95;;
66669;SDS011;53568;52.164;4.472;2023-03-14T00:32:22;8.34;;;5.29;;
66669;SDS011;53568;52.164;4.472;2023-03-14T00:34:48;9.16;;;5.76;;
66669;SDS011;53568;52.164;4.472;2023-03-14T00:37:14;8.90;;;5.67;;
66669;SDS011;53568;52.164;4.472;2023-03-14T00:39:40;8.03;;;5.17;;
66669;SDS011;53568;52.164;4.472;2023-03-14T00:42:05;9.03;;;5.84;;
66669;SDS011;53568;52.164;4.472;2023-03-14T00:44:31;9.48;;;6.11;;
66669;SDS011;53568;52.164;4.472;2023-03-14T00:46:57;10.33;;;6.62;;
66669;SDS011;53568;52.164;4.472;2023-03-14T00:49:23;9.24;;;5.96;;
66669;SDS011;53568;52.164;4.472;2023-03-14T00:51:48;9.18;;;6.02;;
66669;SDS011;53568;52.164;4.472;2023-03-14T00:54:14;10.40;;;6.67;;
66669;SDS011;53568;52.164;4.472;2023-03-14T00:56:39;11.41;;;7.08;;
66669;SDS011;53568;52.164;4.472;2023-03-14T00:59:05;11.93;;;7.28;;
66669;SDS011;53568;52.164;4.472;2023-03-14T01:01:30;12.71;;;7.65;;
66669;SDS011;53568;52.164;4.472;2023-03-14T01:03:56;13.34;;;8.06;;
66669;SDS011;53568;52.164;4.472;2023-03-14T01:06:23;13.15;;;7.95;;
66669;SDS011;53568;52.164;4.472;2023-03-14T01:08:51;13.12;;;7.95;;
66669;SDS011;53568;52.164;4.472;2023-03-14T01:11:22;12.85;;;7.86;;
66669;SDS011;53568;52.164;4.472;2023-03-14T01:13:53;13.33;;;8.17;;
66669;SDS011;53568;52.164;4.472;2023-03-14T01:16:20;13.00;;;7.90;;
66669;SDS011;53568;52.164;4.472;2023-03-14T01:18:47;13.21;;;7.97;;
66669;SDS011;53568;52.164;4.472;2023-03-14T01:21:18;14.59;;;8.72;;
66669;SDS011;53568;52.164;4.472;2023-03-14T01:23:46;14.26;;;8.55;;
66669;SDS011;53568;52.164;4.472;2023-03-14T01:26:13;13.55;;;8.15;;
66669;SDS011;53568;52.164;4.472;2023-03-14T01:28:44;13.83;;;8.28;;
66669;SDS011;53568;52.164;4.472;2023-03-14T01:31:10;14.13;;;8.42;;
66669;SDS011;53568;52.164;4.472;2023-03-14T01:33:37;13.88;;;8.33;;
66669;SDS011;53568;52.164;4.472;2023-03-14T01:36:03;13.76;;;8.15;;
66669;SDS011;53568;52.164;4.472;2023-03-14T01:38:30;13.51;;;8.10;;
66669;SDS011;53568;52.164;4.472;2023-03-14T01:40:57;12.81;;;7.72;;
66669;SDS011;53568;52.164;4.472;2023-03-14T01:43:23;12.93;;;7.82;;
66669;SDS011;53568;52.164;4.472;2023-03-14T01:46:06;11.80;;;7.23;;
66669;SDS011;53568;52.164;4.472;2023-03-14T01:48:47;12.22;;;7.49;;
66669;SDS011;53568;52.164;4.472;2023-03-14T01:51:39;11.08;;;6.74;;
66669;SDS011;53568;52.164;4.472;2023-03-14T01:56:52;9.58;;;5.95;;
66669;SDS011;53568;52.164;4.472;2023-03-14T01:59:25;11.55;;;7.12;;
66669;SDS011;53568;52.164;4.472;2023-03-14T02:01:53;10.48;;;6.52;;
66669;SDS011;53568;52.164;4.472;2023-03-14T02:04:20;9.97;;;6.20;;
66669;SDS011;53568;52.164;4.472;2023-03-14T02:06:51;9.21;;;5.75;;
66669;SDS011;53568;52.164;4.472;2023-03-14T02:09:33;9.68;;;6.04;;
66669;SDS011;53568;52.164;4.472;2023-03-14T02:11:59;9.50;;;6.02;;
66669;SDS011;53568;52.164;4.472;2023-03-14T02:14:28;9.61;;;6.10;;
66669;SDS011;53568;52.164;4.472;2023-03-14T02:17:00;8.81;;;5.61;;
66669;SDS011;53568;52.164;4.472;2023-03-14T02:19:40;10.05;;;6.29;;
66669;SDS011;53568;52.164;4.472;2023-03-14T02:22:13;9.79;;;6.23;;
66669;SDS011;53568;52.164;4.472;2023-03-14T02:27:16;7.65;;;5.09;;
66669;SDS011;53568;52.164;4.472;2023-03-14T02:30:00;8.66;;;5.75;;
66669;SDS011;53568;52.164;4.472;2023-03-14T02:32:31;8.08;;;5.38;;
66669;SDS011;53568;52.164;4.472;2023-03-14T02:35:03;7.79;;;5.21;;
66669;SDS011;53568;52.164;4.472;2023-03-14T02:40:11;7.86;;;5.21;;
66669;SDS011;53568;52.164;4.472;2023-03-14T02:42:37;7.66;;;5.02;;
66669;SDS011;53568;52.164;4.472;2023-03-14T02:47:31;8.68;;;5.50;;
66669;SDS011;53568;52.164;4.472;2023-03-14T02:49:59;8.52;;;5.47;;
66669;SDS011;53568;52.164;4.472;2023-03-14T02:52:35;8.13;;;5.39;;
66669;SDS011;53568;52.164;4.472;2023-03-14T02:55:00;7.67;;;5.33;;
66669;SDS011;53568;52.164;4.472;2023-03-14T02:57:26;7.69;;;5.54;;
66669;SDS011;53568;52.164;4.472;2023-03-14T02:59:51;7.24;;;5.36;;
66669;SDS011;53568;52.164;4.472;2023-03-14T03:02:17;5.70;;;4.46;;
66669;SDS011;53568;52.164;4.472;2023-03-14T03:04:43;5.57;;;4.50;;
66669;SDS011;53568;52.164;4.472;2023-03-14T03:07:08;5.28;;;4.23;;
66669;SDS011;53568;52.164;4.472;2023-03-14T03:09:34;5.30;;;4.17;;
66669;SDS011;53568;52.164;4.472;2023-03-14T03:12:00;5.51;;;4.35;;
66669;SDS011;53568;52.164;4.472;2023-03-14T03:14:25;5.34;;;4.29;;
66669;SDS011;53568;52.164;4.472;2023-03-14T03:16:51;4.79;;;3.89;;
66669;SDS011;53568;52.164;4.472;2023-03-14T03:19:16;4.94;;;3.94;;
66669;SDS011;53568;52.164;4.472;2023-03-14T03:21:43;5.35;;;4.29;;
66669;SDS011;53568;52.164;4.472;2023-03-14T03:24:09;5.41;;;4.35;;
66669;SDS011;53568;52.164;4.472;2023-03-14T03:26:35;5.33;;;4.23;;
66669;SDS011;53568;52.164;4.472;2023-03-14T03:29:01;5.60;;;4.35;;
66669;SDS011;53568;52.164;4.472;2023-03-14T03:31:27;6.20;;;4.80;;
66669;SDS011;53568;52.164;4.472;2023-03-14T03:33:53;5.60;;;4.37;;
66669;SDS011;53568;52.164;4.472;2023-03-14T03:36:22;5.49;;;4.40;;
66669;SDS011;53568;52.164;4.472;2023-03-14T03:38:49;5.68;;;4.68;;
66669;SDS011;53568;52.164;4.472;2023-03-14T03:41:14;5.91;;;4.92;;
66669;SDS011;53568;52.164;4.472;2023-03-14T03:43:40;5.66;;;4.75;;
66669;SDS011;53568;52.164;4.472;2023-03-14T03:46:06;5.50;;;4.69;;
66669;SDS011;53568;52.164;4.472;2023-03-14T03:48:32;6.30;;;5.29;;
66669;SDS011;53568;52.164;4.472;2023-03-14T03:50:58;6.23;;;5.15;;
66669;SDS011;53568;52.164;4.472;2023-03-14T03:53:24;6.12;;;5.20;;
66669;SDS011;53568;52.164;4.472;2023-03-14T03:55:49;6.24;;;5.38;;
66669;SDS011;53568;52.164;4.472;2023-03-14T03:58:15;6.42;;;5.57;;
66669;SDS011;53568;52.164;4.472;2023-03-14T04:00:40;6.12;;;5.38;;
66669;SDS011;53568;52.164;4.472;2023-03-14T04:03:06;6.02;;;5.39;;
66669;SDS011;53568;52.164;4.472;2023-03-14T04:05:31;6.39;;;5.81;;
66669;SDS011;53568;52.164;4.472;2023-03-14T04:07:57;5.57;;;5.16;;
66669;SDS011;53568;52.164;4.472;2023-03-14T04:10:22;5.73;;;5.42;;
66669;SDS011;53568;52.164;4.472;2023-03-14T04:12:48;5.64;;;5.37;;
66669;SDS011;53568;52.164;4.472;2023-03-14T04:15:13;5.92;;;5.65;;
66669;SDS011;53568;52.164;4.472;2023-03-14T04:17:39;5.93;;;5.68;;
66669;SDS011;53568;52.164;4.472;2023-03-14T04:20:04;5.96;;;5.72;;
66669;SDS011;53568;52.164;4.472;2023-03-14T04:22:35;5.91;;;5.49;;
66669;SDS011;53568;52.164;4.472;2023-03-14T04:25:01;5.43;;;5.05;;
66669;SDS011;53568;52.164;4.472;2023-03-14T04:27:28;5.08;;;4.62;;
66669;SDS011;53568;52.164;4.472;2023-03-14T04:29:54;5.14;;;4.73;;
66669;SDS011;53568;52.164;4.472;2023-03-14T04:32:20;5.48;;;4.92;;
66669;SDS011;53568;52.164;4.472;2023-03-14T04:34:45;5.34;;;4.79;;
66669;SDS011;53568;52.164;4.472;2023-03-14T04:37:11;4.95;;;4.49;;
66669;SDS011;53568;52.164;4.472;2023-03-14T04:39:36;4.56;;;4.16;;
66669;SDS011;53568;52.164;4.472;2023-03-14T04:42:02;4.63;;;4.30;;
66669;SDS011;53568;52.164;4.472;2023-03-14T04:44:28;4.43;;;4.19;;
66669;SDS011;53568;52.164;4.472;2023-03-14T04:46:54;4.34;;;4.01;;
66669;SDS011;53568;52.164;4.472;2023-03-14T04:49:19;4.41;;;4.18;;
66669;SDS011;53568;52.164;4.472;2023-03-14T04:51:45;4.58;;;4.28;;
66669;SDS011;53568;52.164;4.472;2023-03-14T04:54:10;4.72;;;4.52;;
66669;SDS011;53568;52.164;4.472;2023-03-14T04:56:36;4.99;;;4.70;;
66669;SDS011;53568;52.164;4.472;2023-03-14T04:59:02;4.50;;;4.23;;
66669;SDS011;53568;52.164;4.472;2023-03-14T05:01:28;4.68;;;4.36;;
66669;SDS011;53568;52.164;4.472;2023-03-14T05:03:54;4.52;;;4.19;;
66669;SDS011;53568;52.164;4.472;2023-03-14T05:06:19;4.59;;;4.27;;
66669;SDS011;53568;52.164;4.472;2023-03-14T05:08:45;4.43;;;4.16;;
66669;SDS011;53568;52.164;4.472;2023-03-14T05:11:10;3.54;;;3.49;;
66669;SDS011;53568;52.164;4.472;2023-03-14T05:13:37;3.38;;;3.32;;
66669;SDS011;53568;52.164;4.472;2023-03-14T05:16:07;3.31;;;3.25;;
66669;SDS011;53568;52.164;4.472;2023-03-14T05:18:34;3.34;;;3.25;;
66669;SDS011;53568;52.164;4.472;2023-03-14T05:21:00;3.38;;;3.19;;
66669;SDS011;53568;52.164;4.472;2023-03-14T05:23:26;4.21;;;3.64;;
66669;SDS011;53568;52.164;4.472;2023-03-14T05:25:51;5.76;;;4.35;;
66669;SDS011;53568;52.164;4.472;2023-03-14T05:28:17;6.66;;;4.52;;
66669;SDS011;53568;52.164;4.472;2023-03-14T05:30:42;6.08;;;3.94;;
66669;SDS011;53568;52.164;4.472;2023-03-14T05:33:08;5.60;;;3.56;;
66669;SDS011;53568;52.164;4.472;2023-03-14T05:35:33;5.70;;;3.56;;
66669;SDS011;53568;52.164;4.472;2023-03-14T05:37:59;6.68;;;4.07;;
66669;SDS011;53568;52.164;4.472;2023-03-14T05:40:25;7.60;;;4.54;;
66669;SDS011;53568;52.164;4.472;2023-03-14T05:42:50;7.60;;;4.53;;
66669;SDS011;53568;52.164;4.472;2023-03-14T05:45:17;6.82;;;4.07;;
66669;SDS011;53568;52.164;4.472;2023-03-14T05:47:43;7.49;;;4.47;;
66669;SDS011;53568;52.164;4.472;2023-03-14T05:50:08;7.84;;;4.67;;
66669;SDS011;53568;52.164;4.472;2023-03-14T05:52:35;6.43;;;3.83;;
66669;SDS011;53568;52.164;4.472;2023-03-14T05:55:00;6.94;;;4.12;;
66669;SDS011;53568;52.164;4.472;2023-03-14T05:57:26;7.52;;;4.46;;
66669;SDS011;53568;52.164;4.472;2023-03-14T05:59:52;7.01;;;4.15;;
66669;SDS011;53568;52.164;4.472;2023-03-14T06:02:17;7.31;;;4.35;;
66669;SDS011;53568;52.164;4.472;2023-03-14T06:04:43;7.18;;;4.27;;
66669;SDS011;53568;52.164;4.472;2023-03-14T06:07:08;6.81;;;4.07;;
66669;SDS011;53568;52.164;4.472;2023-03-14T06:09:34;5.94;;;3.59;;
66669;SDS011;53568;52.164;4.472;2023-03-14T06:11:59;5.10;;;3.09;;
66669;SDS011;53568;52.164;4.472;2023-03-14T06:14:25;4.20;;;2.54;;
66669;SDS011;53568;52.164;4.472;2023-03-14T06:16:50;4.27;;;2.57;;
66669;SDS011;53568;52.164;4.472;2023-03-14T06:19:16;5.06;;;3.01;;
66669;SDS011;53568;52.164;4.472;2023-03-14T06:21:41;4.79;;;2.86;;
66669;SDS011;53568;52.164;4.472;2023-03-14T06:24:07;4.32;;;2.59;;
66669;SDS011;53568;52.164;4.472;2023-03-14T06:26:33;4.74;;;2.84;;
66669;SDS011;53568;52.164;4.472;2023-03-14T06:28:59;4.87;;;2.90;;
66669;SDS011;53568;52.164;4.472;2023-03-14T06:31:29;4.78;;;2.86;;
66669;SDS011;53568;52.164;4.472;2023-03-14T06:33:57;6.54;;;3.94;;
66669;SDS011;53568;52.164;4.472;2023-03-14T06:36:23;5.38;;;3.22;;
66669;SDS011;53568;52.164;4.472;2023-03-14T06:38:49;5.41;;;3.28;;
66669;SDS011;53568;52.164;4.472;2023-03-14T06:41:14;5.55;;;3.35;;
66669;SDS011;53568;52.164;4.472;2023-03-14T06:43:40;5.77;;;3.51;;
66669;SDS011;53568;52.164;4.472;2023-03-14T06:46:05;5.39;;;3.26;;
66669;SDS011;53568;52.164;4.472;2023-03-14T06:48:31;5.69;;;3.45;;
66669;SDS011;53568;52.164;4.472;2023-03-14T06:50:56;6.27;;;3.83;;
66669;SDS011;53568;52.164;4.472;2023-03-14T06:53:22;6.15;;;3.73;;
66669;SDS011;53568;52.164;4.472;2023-03-14T06:55:47;6.05;;;3.69;;
66669;SDS011;53568;52.164;4.472;2023-03-14T06:58:13;6.33;;;3.85;;
66669;SDS011;53568;52.164;4.472;2023-03-14T07:00:39;5.90;;;3.61;;
66669;SDS011;53568;52.164;4.472;2023-03-14T07:03:05;5.91;;;3.67;;
66669;SDS011;53568;52.164;4.472;2023-03-14T07:05:30;5.38;;;3.32;;
66669;SDS011;53568;52.164;4.472;2023-03-14T07:07:56;5.24;;;3.28;;
66669;SDS011;53568;52.164;4.472;2023-03-14T07:10:22;5.76;;;3.61;;
66669;SDS011;53568;52.164;4.472;2023-03-14T07:12:47;4.72;;;2.96;;
66669;SDS011;53568;52.164;4.472;2023-03-14T07:15:13;5.36;;;3.27;;
66669;SDS011;53568;52.164;4.472;2023-03-14T07:17:38;6.29;;;3.82;;
66669;SDS011;53568;52.164;4.472;2023-03-14T07:20:04;5.89;;;3.61;;
66669;SDS011;53568;52.164;4.472;2023-03-14T07:22:30;4.71;;;2.90;;
66669;SDS011;53568;52.164;4.472;2023-03-14T07:24:56;4.69;;;2.89;;
66669;SDS011;53568;52.164;4.472;2023-03-14T07:27:22;5.51;;;3.34;;
66669;SDS011;53568;52.164;4.472;2023-03-14T07:29:47;5.75;;;3.46;;
66669;SDS011;53568;52.164;4.472;2023-03-14T07:32:13;7.15;;;4.27;;
66669;SDS011;53568;52.164;4.472;2023-03-14T07:34:42;7.41;;;4.48;;
66669;SDS011;53568;52.164;4.472;2023-03-14T07:37:08;7.54;;;4.49;;
66669;SDS011;53568;52.164;4.472;2023-03-14T07:39:36;7.73;;;4.57;;
66669;SDS011;53568;52.164;4.472;2023-03-14T07:42:02;7.61;;;4.46;;
66669;SDS011;53568;52.164;4.472;2023-03-14T07:44:27;7.87;;;4.64;;
66669;SDS011;53568;52.164;4.472;2023-03-14T07:46:53;7.63;;;4.46;;
66669;SDS011;53568;52.164;4.472;2023-03-14T07:49:18;7.06;;;4.13;;
66669;SDS011;53568;52.164;4.472;2023-03-14T07:51:47;5.81;;;3.46;;
66669;SDS011;53568;52.164;4.472;2023-03-14T07:54:13;7.17;;;4.27;;
66669;SDS011;53568;52.164;4.472;2023-03-14T07:56:39;7.56;;;4.43;;
66669;SDS011;53568;52.164;4.472;2023-03-14T07:59:04;7.14;;;4.19;;
66669;SDS011;53568;52.164;4.472;2023-03-14T08:01:30;6.69;;;3.97;;
66669;SDS011;53568;52.164;4.472;2023-03-14T08:03:55;6.86;;;4.02;;
66669;SDS011;53568;52.164;4.472;2023-03-14T08:06:21;7.16;;;4.15;;
66669;SDS011;53568;52.164;4.472;2023-03-14T08:08:46;6.64;;;3.91;;
66669;SDS011;53568;52.164;4.472;2023-03-14T08:11:12;6.39;;;3.84;;
66669;SDS011;53568;52.164;4.472;2023-03-14T08:13:37;5.74;;;3.46;;
66669;SDS011;53568;52.164;4.472;2023-03-14T08:16:03;5.08;;;3.06;;
66669;SDS011;53568;52.164;4.472;2023-03-14T08:18:30;4.29;;;2.57;;
66669;SDS011;53568;52.164;4.472;2023-03-14T08:20:55;3.94;;;2.36;;
66669;SDS011;53568;52.164;4.472;2023-03-14T08:23:21;4.07;;;2.44;;
66669;SDS011;53568;52.164;4.472;2023-03-14T08:25:50;4.12;;;2.48;;
66669;SDS011;53568;52.164;4.472;2023-03-14T08:28:17;4.07;;;2.45;;
66669;SDS011;53568;52.164;4.472;2023-03-14T08:30:43;4.51;;;2.72;;
66669;SDS011;53568;52.164;4.472;2023-03-14T08:33:08;5.21;;;3.14;;
66669;SDS011;53568;52.164;4.472;2023-03-14T08:35:34;5.10;;;3.13;;
66669;SDS011;53568;52.164;4.472;2023-03-14T08:37:59;5.60;;;3.48;;
66669;SDS011;53568;52.164;4.472;2023-03-14T08:40:26;5.72;;;3.51;;
66669;SDS011;53568;52.164;4.472;2023-03-14T08:42:52;7.23;;;4.34;;
66669;SDS011;53568;52.164;4.472;2023-03-14T08:45:17;7.51;;;4.55;;
66669;SDS011;53568;52.164;4.472;2023-03-14T08:47:44;8.39;;;5.05;;
66669;SDS011;53568;52.164;4.472;2023-03-14T08:50:10;9.26;;;5.55;;
66669;SDS011;53568;52.164;4.472;2023-03-14T08:52:36;10.02;;;5.90;;
66669;SDS011;53568;52.164;4.472;2023-03-14T08:55:03;11.20;;;6.58;;
66669;SDS011;53568;52.164;4.472;2023-03-14T08:57:29;10.81;;;6.40;;
66669;SDS011;53568;52.164;4.472;2023-03-14T08:59:55;12.41;;;7.37;;
66669;SDS011;53568;52.164;4.472;2023-03-14T09:02:22;11.84;;;7.02;;
66669;SDS011;53568;52.164;4.472;2023-03-14T09:04:49;12.19;;;7.22;;
66669;SDS011;53568;52.164;4.472;2023-03-14T09:07:16;11.98;;;7.13;;
66669;SDS011;53568;52.164;4.472;2023-03-14T09:09:41;12.52;;;7.45;;
66669;SDS011;53568;52.164;4.472;2023-03-14T09:12:07;13.03;;;7.71;;
66669;SDS011;53568;52.164;4.472;2023-03-14T09:14:33;13.11;;;7.74;;
66669;SDS011;53568;52.164;4.472;2023-03-14T09:16:58;15.13;;;8.83;;
66669;SDS011;53568;52.164;4.472;2023-03-14T09:19:24;14.29;;;8.37;;
66669;SDS011;53568;52.164;4.472;2023-03-14T09:21:49;13.12;;;7.70;;
66669;SDS011;53568;52.164;4.472;2023-03-14T09:24:15;14.63;;;8.61;;
66669;SDS011;53568;52.164;4.472;2023-03-14T09:26:42;14.07;;;8.30;;
66669;SDS011;53568;52.164;4.472;2023-03-14T09:29:08;14.13;;;8.23;;
66669;SDS011;53568;52.164;4.472;2023-03-14T09:31:33;14.83;;;8.70;;
66669;SDS011;53568;52.164;4.472;2023-03-14T09:34:00;14.14;;;8.37;;
66669;SDS011;53568;52.164;4.472;2023-03-14T09:36:25;13.81;;;8.17;;
66669;SDS011;53568;52.164;4.472;2023-03-14T09:38:51;13.35;;;8.03;;
66669;SDS011;53568;52.164;4.472;2023-03-14T09:41:35;14.76;;;8.78;;
66669;SDS011;53568;52.164;4.472;2023-03-14T09:44:16;14.94;;;8.80;;
66669;SDS011;53568;52.164;4.472;2023-03-14T09:46:49;14.08;;;8.42;;
66669;SDS011;53568;52.164;4.472;2023-03-14T09:49:20;15.56;;;9.17;;
66669;SDS011;53568;52.164;4.472;2023-03-14T09:51:51;16.53;;;9.68;;
66669;SDS011;53568;52.164;4.472;2023-03-14T09:54:34;16.11;;;9.32;;
66669;SDS011;53568;52.164;4.472;2023-03-14T09:57:03;15.04;;;8.79;;
66669;SDS011;53568;52.164;4.472;2023-03-14T09:59:30;14.39;;;8.47;;
66669;SDS011;53568;52.164;4.472;2023-03-14T10:02:01;14.49;;;8.53;;
66669;SDS011;53568;52.164;4.472;2023-03-14T10:04:49;14.47;;;8.50;;
66669;SDS011;53568;52.164;4.472;2023-03-14T10:07:37;15.65;;;9.20;;
66669;SDS011;53568;52.164;4.472;2023-03-14T10:10:08;15.79;;;9.17;;
66669;SDS011;53568;52.164;4.472;2023-03-14T10:12:38;15.35;;;9.02;;
66669;SDS011;53568;52.164;4.472;2023-03-14T10:15:08;15.36;;;9.05;;
66669;SDS011;53568;52.164;4.472;2023-03-14T10:17:43;14.79;;;8.76;;
66669;SDS011;53568;52.164;4.472;2023-03-14T10:23:05;14.35;;;8.50;;
66669;SDS011;53568;52.164;4.472;2023-03-14T10:26:06;14.20;;;8.41;;
66669;SDS011;53568;52.164;4.472;2023-03-14T10:28:39;17.05;;;9.85;;
66669;SDS011;53568;52.164;4.472;2023-03-14T10:31:09;15.34;;;9.00;;
66669;SDS011;53568;52.164;4.472;2023-03-14T10:33:35;14.45;;;8.55;;
66669;SDS011;53568;52.164;4.472;2023-03-14T10:36:03;13.71;;;8.25;;
66669;SDS011;53568;52.164;4.472;2023-03-14T10:38:41;13.61;;;8.13;;
66669;SDS011;53568;52.164;4.472;2023-03-14T10:43:50;13.52;;;8.00;;
66669;SDS011;53568;52.164;4.472;2023-03-14T10:46:19;13.67;;;8.06;;
66669;SDS011;53568;52.164;4.472;2023-03-14T10:48:45;13.32;;;7.86;;
66669;SDS011;53568;52.164;4.472;2023-03-14T10:53:46;13.12;;;7.74;;
66669;SDS011;53568;52.164;4.472;2023-03-14T10:56:20;12.52;;;7.46;;
66669;SDS011;53568;52.164;4.472;2023-03-14T10:58:48;12.68;;;7.51;;
66669;SDS011;53568;52.164;4.472;2023-03-14T11:06:34;10.28;;;6.13;;
66669;SDS011;53568;52.164;4.472;2023-03-14T11:20:36;9.94;;;5.86;;
66669;SDS011;53568;52.164;4.472;2023-03-14T11:28:39;9.97;;;5.95;;
66669;SDS011;53568;52.164;4.472;2023-03-14T11:31:16;10.26;;;6.11;;
66669;SDS011;53568;52.164;4.472;2023-03-14T11:36:50;8.66;;;5.32;;
66669;SDS011;53568;52.164;4.472;2023-03-14T11:39:20;9.27;;;5.62;;
66669;SDS011;53568;52.164;4.472;2023-03-14T11:41:46;9.97;;;6.01;;
66669;SDS011;53568;52.164;4.472;2023-03-14T11:44:18;9.69;;;5.87;;
66669;SDS011;53568;52.164;4.472;2023-03-14T11:46:54;9.37;;;5.70;;
66669;SDS011;53568;52.164;4.472;2023-03-14T11:49:38;8.45;;;5.19;;
66669;SDS011;53568;52.164;4.472;2023-03-14T11:52:23;8.72;;;5.38;;
66669;SDS011;53568;52.164;4.472;2023-03-14T11:55:16;6.99;;;4.32;;
66669;SDS011;53568;52.164;4.472;2023-03-14T11:57:44;7.88;;;4.81;;
66669;SDS011;53568;52.164;4.472;2023-03-14T12:00:21;8.29;;;5.06;;
66669;SDS011;53568;52.164;4.472;2023-03-14T12:08:49;7.41;;;4.50;;
66669;SDS011;53568;52.164;4.472;2023-03-14T12:11:43;8.65;;;5.23;;
66669;SDS011;53568;52.164;4.472;2023-03-14T12:14:30;8.37;;;5.00;;
66669;SDS011;53568;52.164;4.472;2023-03-14T12:17:06;8.96;;;5.45;;
66669;SDS011;53568;52.164;4.472;2023-03-14T12:19:45;7.89;;;4.78;;
66669;SDS011;53568;52.164;4.472;2023-03-14T12:22:23;8.25;;;4.99;;
66669;SDS011;53568;52.164;4.472;2023-03-14T12:25:00;7.37;;;4.52;;
66669;SDS011;53568;52.164;4.472;2023-03-14T12:30:18;6.17;;;3.82;;
66669;SDS011;53568;52.164;4.472;2023-03-14T12:43:30;5.94;;;3.68;;
66669;SDS011;53568;52.164;4.472;2023-03-14T12:48:43;5.93;;;3.73;;
66669;SDS011;53568;52.164;4.472;2023-03-14T12:51:18;5.48;;;3.43;;
66669;SDS011;53568;52.164;4.472;2023-03-14T12:59:31;6.76;;;4.14;;
66669;SDS011;53568;52.164;4.472;2023-03-14T13:02:41;6.51;;;4.02;;
66669;SDS011;53568;52.164;4.472;2023-03-14T13:05:30;5.15;;;3.16;;
66669;SDS011;53568;52.164;4.472;2023-03-14T13:12:37;5.25;;;3.28;;
66669;SDS011;53568;52.164;4.472;2023-03-14T13:15:14;5.70;;;3.60;;
66669;SDS011;53568;52.164;4.472;2023-03-14T13:17:42;5.06;;;3.16;;
66669;SDS011;53568;52.164;4.472;2023-03-14T13:20:12;5.29;;;3.30;;
66669;SDS011;53568;52.164;4.472;2023-03-14T13:22:46;5.52;;;3.44;;
66669;SDS011;53568;52.164;4.472;2023-03-14T13:25:13;5.34;;;3.34;;
66669;SDS011;53568;52.164;4.472;2023-03-14T13:27:39;5.07;;;3.19;;
66669;SDS011;53568;52.164;4.472;2023-03-14T13:32:47;5.48;;;3.45;;
66669;SDS011;53568;52.164;4.472;2023-03-14T13:35:17;5.19;;;3.29;;
66669;SDS011;53568;52.164;4.472;2023-03-14T13:37:46;5.64;;;3.61;;
66669;SDS011;53568;52.164;4.472;2023-03-14T13:40:28;5.00;;;3.21;;
66669;SDS011;53568;52.164;4.472;2023-03-14T13:43:30;5.24;;;3.34;;
66669;SDS011;53568;52.164;4.472;2023-03-14T13:48:16;5.08;;;3.20;;
66669;SDS011;53568;52.164;4.472;2023-03-14T13:50:44;5.34;;;3.36;;
66669;SDS011;53568;52.164;4.472;2023-03-14T13:53:15;5.76;;;3.61;;
66669;SDS011;53568;52.164;4.472;2023-03-14T13:55:41;6.32;;;3.97;;
66669;SDS011;53568;52.164;4.472;2023-03-14T13:58:28;6.56;;;4.08;;
66669;SDS011;53568;52.164;4.472;2023-03-14T14:01:04;6.23;;;3.91;;
66669;SDS011;53568;52.164;4.472;2023-03-14T14:03:52;5.32;;;3.39;;
66669;SDS011;53568;52.164;4.472;2023-03-14T14:08:48;5.76;;;3.65;;
66669;SDS011;53568;52.164;4.472;2023-03-14T14:13:58;5.83;;;3.66;;
66669;SDS011;53568;52.164;4.472;2023-03-14T14:16:24;5.06;;;3.21;;
66669;SDS011;53568;52.164;4.472;2023-03-14T14:18:53;5.50;;;3.48;;
66669;SDS011;53568;52.164;4.472;2023-03-14T14:21:22;6.04;;;3.75;;
66669;SDS011;53568;52.164;4.472;2023-03-14T14:23:49;5.39;;;3.37;;
66669;SDS011;53568;52.164;4.472;2023-03-14T14:26:16;6.33;;;3.92;;
66669;SDS011;53568;52.164;4.472;2023-03-14T14:28:44;6.04;;;3.76;;
66669;SDS011;53568;52.164;4.472;2023-03-14T14:33:43;5.85;;;3.71;;
66669;SDS011;53568;52.164;4.472;2023-03-14T14:36:42;5.50;;;3.49;;
66669;SDS011;53568;52.164;4.472;2023-03-14T14:39:11;5.45;;;3.48;;
66669;SDS011;53568;52.164;4.472;2023-03-14T14:41:43;4.92;;;3.14;;
66669;SDS011;53568;52.164;4.472;2023-03-14T14:44:13;5.57;;;3.54;;
66669;SDS011;53568;52.164;4.472;2023-03-14T14:46:46;4.43;;;2.85;;
66669;SDS011;53568;52.164;4.472;2023-03-14T14:49:17;5.05;;;3.23;;
66669;SDS011;53568;52.164;4.472;2023-03-14T14:51:47;5.37;;;3.37;;
66669;SDS011;53568;52.164;4.472;2023-03-14T14:54:16;5.90;;;3.67;;
66669;SDS011;53568;52.164;4.472;2023-03-14T14:56:48;5.87;;;3.63;;
66669;SDS011;53568;52.164;4.472;2023-03-14T14:59:20;5.97;;;3.69;;
66669;SDS011;53568;52.164;4.472;2023-03-14T15:01:48;6.27;;;3.82;;
66669;SDS011;53568;52.164;4.472;2023-03-14T15:04:16;6.30;;;3.83;;
66669;SDS011;53568;52.164;4.472;2023-03-14T15:06:45;6.01;;;3.72;;
66669;SDS011;53568;52.164;4.472;2023-03-14T15:09:14;5.86;;;3.63;;
66669;SDS011;53568;52.164;4.472;2023-03-14T15:11:43;5.92;;;3.64;;
66669;SDS011;53568;52.164;4.472;2023-03-14T15:14:09;5.06;;;3.15;;
66669;SDS011;53568;52.164;4.472;2023-03-14T15:16:34;5.77;;;3.61;;
66669;SDS011;53568;52.164;4.472;2023-03-14T15:19:02;5.09;;;3.21;;
66669;SDS011;53568;52.164;4.472;2023-03-14T15:21:31;5.03;;;3.19;;
66669;SDS011;53568;52.164;4.472;2023-03-14T15:23:58;5.46;;;3.46;;
66669;SDS011;53568;52.164;4.472;2023-03-14T15:26:25;5.32;;;3.35;;
66669;SDS011;53568;52.164;4.472;2023-03-14T15:28:52;4.86;;;3.02;;
66669;SDS011;53568;52.164;4.472;2023-03-14T15:31:19;4.76;;;2.95;;
66669;SDS011;53568;52.164;4.472;2023-03-14T15:33:48;5.75;;;3.53;;
66669;SDS011;53568;52.164;4.472;2023-03-14T15:38:51;5.79;;;3.52;;
66669;SDS011;53568;52.164;4.472;2023-03-14T15:41:18;6.00;;;3.68;;
66669;SDS011;53568;52.164;4.472;2023-03-14T15:43:45;5.58;;;3.46;;
66669;SDS011;53568;52.164;4.472;2023-03-14T15:46:11;6.00;;;3.76;;
66669;SDS011;53568;52.164;4.472;2023-03-14T15:48:38;6.10;;;3.77;;
66669;SDS011;53568;52.164;4.472;2023-03-14T15:51:04;4.80;;;2.99;;
66669;SDS011;53568;52.164;4.472;2023-03-14T15:53:30;4.73;;;2.96;;
66669;SDS011;53568;52.164;4.472;2023-03-14T15:55:55;4.83;;;3.01;;
66669;SDS011;53568;52.164;4.472;2023-03-14T15:58:21;5.73;;;3.53;;
66669;SDS011;53568;52.164;4.472;2023-03-14T16:00:46;5.79;;;3.57;;
66669;SDS011;53568;52.164;4.472;2023-03-14T16:03:12;6.11;;;3.77;;
66669;SDS011;53568;52.164;4.472;2023-03-14T16:05:41;6.11;;;3.77;;
66669;SDS011;53568;52.164;4.472;2023-03-14T16:08:06;5.98;;;3.71;;
66669;SDS011;53568;52.164;4.472;2023-03-14T16:10:32;6.28;;;3.88;;
66669;SDS011;53568;52.164;4.472;2023-03-14T16:12:58;5.61;;;3.48;;
66669;SDS011;53568;52.164;4.472;2023-03-14T16:15:24;6.63;;;4.08;;
66669;SDS011;53568;52.164;4.472;2023-03-14T16:17:54;6.79;;;4.15;;
66669;SDS011;53568;52.164;4.472;2023-03-14T16:20:21;7.06;;;4.27;;
66669;SDS011;53568;52.164;4.472;2023-03-14T16:22:48;6.19;;;3.76;;
66669;SDS011;53568;52.164;4.472;2023-03-14T16:25:14;6.75;;;4.07;;